Aérodrome :
LOGIN :

S'inscrire | Disclaimer

   EN    FR    IT 

 










Légende :    VFR   VFR Marginal   IFR   IFR Intensif   IFR Très Intensif
Visi : 
Plafond : 
>= 8 km
>= 3000ft
5 à 8 km
1000 à 3000 ft
1500m à 5 km
500 à 1000 ft
800 à 1500m
200 à 500 ft
< 800m
< 200 ft
Symboles :   Orages  Brouillard  Fortes neiges  Fortes précipitations  Vent > 20 kt
SIGMETs :   Divers  Orages  Givrage  Turbulence  Onde Orograph.  Cendres Volcan.







- Altitude de l'aérodrome : 17 ft
- Code IATA : GRQ


EHGG - Groningen Eelde

DERNIER METAR :
  • 181425Z AUTO 35010KT 320V020 9999 SCT045 25/17 Q1013 NOSIG

METARs EXPIRÉS :
  • 181355Z AUTO 34005KT 270V070 9999 NSC 27/14 Q1013 NOSIG
  • 181325Z AUTO 33004KT 260V020 9999 NSC 27/15 Q1013 NOSIG
  • 181255Z AUTO 28005KT 200V310 9999 NSC 26/14 Q1014 NOSIG
  • 181225Z AUTO VRB02KT 9999 NSC 26/15 Q1014 NOSIG

TAF TAF EHGG
Valide du 18 à 12h jusqu'au 19 à 18h UTC


181110Z 1812/1918 28005KT CAVOK
PROB30
TEMPO 1902/1905 6000
PROB40
TEMPO 1911/1918 23020G30KT 4000 SHRA TSRA SCT070CB
PROB30
TEMPO 1914/1918 24035G45KT 2000 TSRAGR BKN060CB
Pas de NOTAMs connus pour ce terrain.



MET'MAP, la Météo Aéronautique d'un coup d'oeil ! - Copyright ORBIFLY Décembre 2007 - Disclaimer

ORBIFLY MET'MAP TEAM :

Programmation & Développement : Alexandra Zaïnal
Conception & Développement : Baudouin d'Aumeries
Co-Programmation & Développement : Marc-Olivier Méhu
Soutien technique & logistique : Manuel Goepfert

Contact : metmap@orbifly.com




SOURCES & CREDITS :

   NOAA